createdAt,value
2023-03-16T00:00:48.968Z,11.00
2023-03-16T00:03:15.475Z,11.10
2023-03-16T00:05:41.992Z,11.00
2023-03-16T00:08:08.461Z,11.10
2023-03-16T00:10:34.916Z,11.10
2023-03-16T00:13:01.398Z,11.00
2023-03-16T00:15:27.875Z,11.00
2023-03-16T00:17:54.360Z,11.10
2023-03-16T00:20:20.831Z,11.00
2023-03-16T00:22:47.320Z,11.10
2023-03-16T00:25:13.781Z,11.10
2023-03-16T00:27:40.253Z,11.10
2023-03-16T00:30:06.723Z,11.00
2023-03-16T00:32:33.282Z,11.10
2023-03-16T00:34:59.822Z,11.00
2023-03-16T00:37:26.354Z,11.10
2023-03-16T00:39:52.841Z,11.00
2023-03-16T00:42:19.309Z,11.10
2023-03-16T00:44:45.798Z,11.10
2023-03-16T00:47:12.277Z,11.10
2023-03-16T00:49:38.759Z,11.10
2023-03-16T00:52:05.242Z,11.00
2023-03-16T00:54:31.716Z,11.10
2023-03-16T00:56:58.197Z,11.10
2023-03-16T00:59:24.682Z,11.10
2023-03-16T01:01:51.179Z,11.10
2023-03-16T01:04:17.653Z,11.10
2023-03-16T01:06:44.126Z,11.10
2023-03-16T01:09:10.593Z,11.10
2023-03-16T01:11:37.073Z,11.10
2023-03-16T01:14:03.542Z,11.00
2023-03-16T01:16:30.069Z,11.00
2023-03-16T01:18:56.561Z,11.00
2023-03-16T01:21:23.058Z,11.10
2023-03-16T01:23:49.548Z,11.10
2023-03-16T01:26:16.028Z,11.10
2023-03-16T01:28:42.512Z,11.10
2023-03-16T01:31:09.036Z,11.00
2023-03-16T01:33:35.530Z,11.00
2023-03-16T01:36:02.064Z,11.00
2023-03-16T01:38:28.624Z,11.00
2023-03-16T01:40:55.109Z,11.00
2023-03-16T01:43:23.458Z,11.10
2023-03-16T01:45:49.968Z,11.00
2023-03-16T01:48:16.460Z,11.10
2023-03-16T01:50:42.960Z,11.00
2023-03-16T01:53:09.443Z,11.00
2023-03-16T01:55:35.903Z,11.00
2023-03-16T01:58:02.388Z,11.00
2023-03-16T02:00:29.154Z,11.00
2023-03-16T02:02:55.833Z,11.00
2023-03-16T02:05:22.306Z,11.00
2023-03-16T02:07:48.779Z,11.00
2023-03-16T02:10:15.249Z,10.90
2023-03-16T02:12:41.750Z,10.90
2023-03-16T02:15:08.209Z,10.90
2023-03-16T02:17:34.685Z,11.00
2023-03-16T02:20:01.152Z,10.90
2023-03-16T02:22:27.626Z,10.90
2023-03-16T02:24:54.089Z,11.00
2023-03-16T02:27:20.566Z,11.00
2023-03-16T02:29:47.502Z,10.90
2023-03-16T02:32:13.998Z,10.90
2023-03-16T02:34:41.497Z,11.00
2023-03-16T02:37:07.974Z,10.90
2023-03-16T02:39:34.462Z,11.00
2023-03-16T02:42:00.965Z,11.00
2023-03-16T02:44:27.457Z,10.90
2023-03-16T02:46:53.995Z,10.90
2023-03-16T02:49:20.485Z,10.90
2023-03-16T02:51:46.966Z,11.00
2023-03-16T02:54:13.423Z,11.00
2023-03-16T02:56:39.899Z,10.90
2023-03-16T02:59:06.386Z,11.00
2023-03-16T03:01:32.972Z,11.00
2023-03-16T03:03:59.456Z,11.00
2023-03-16T03:06:25.921Z,10.90
2023-03-16T03:08:52.379Z,11.00
2023-03-16T03:11:18.836Z,11.00
2023-03-16T03:13:45.298Z,10.90
2023-03-16T03:16:11.838Z,10.90
2023-03-16T03:18:38.361Z,11.00
2023-03-16T03:21:04.783Z,10.90
2023-03-16T03:23:31.379Z,10.90
2023-03-16T03:25:57.868Z,10.90
2023-03-16T03:28:24.367Z,10.90
2023-03-16T03:30:50.841Z,10.90
2023-03-16T03:33:17.298Z,10.90
2023-03-16T03:35:43.816Z,10.90
2023-03-16T03:38:10.293Z,10.90
2023-03-16T03:40:36.738Z,10.90
2023-03-16T03:43:03.229Z,11.00
2023-03-16T03:45:29.764Z,10.90
2023-03-16T03:47:56.280Z,10.90
2023-03-16T03:50:22.776Z,10.90
2023-03-16T03:52:49.255Z,10.90
2023-03-16T03:55:17.579Z,10.90
2023-03-16T03:57:44.039Z,10.90
2023-03-16T04:00:10.509Z,10.90
2023-03-16T04:02:37.137Z,10.90
2023-03-16T04:05:03.679Z,10.90
2023-03-16T04:07:30.163Z,10.90
2023-03-16T04:09:56.651Z,10.90
2023-03-16T04:12:23.130Z,10.90
2023-03-16T04:14:49.593Z,10.90
2023-03-16T04:17:17.619Z,10.90
2023-03-16T04:19:44.097Z,10.90
2023-03-16T04:22:10.577Z,10.80
2023-03-16T04:24:37.071Z,10.80
2023-03-16T04:27:03.543Z,10.90
2023-03-16T04:29:30.009Z,10.80
2023-03-16T04:31:56.485Z,10.90
2023-03-16T04:34:22.972Z,10.90
2023-03-16T04:36:49.462Z,10.90
2023-03-16T04:39:15.942Z,10.90
2023-03-16T04:41:42.410Z,10.90
2023-03-16T04:44:08.886Z,10.90
2023-03-16T04:46:35.374Z,10.90
2023-03-16T04:49:01.856Z,10.90
2023-03-16T04:51:28.317Z,10.80
2023-03-16T04:53:54.790Z,10.90
2023-03-16T04:56:21.319Z,10.90
2023-03-16T04:58:47.808Z,11.00
2023-03-16T05:01:14.353Z,10.90
2023-03-16T05:03:40.895Z,10.90
2023-03-16T05:06:07.372Z,10.90
2023-03-16T05:08:33.851Z,10.90
2023-03-16T05:11:00.301Z,10.80
2023-03-16T05:13:26.778Z,10.80
2023-03-16T05:15:53.258Z,10.80
2023-03-16T05:18:19.767Z,10.80
2023-03-16T05:20:46.261Z,10.90
2023-03-16T05:23:12.717Z,10.80
2023-03-16T05:25:39.206Z,10.80
2023-03-16T05:28:05.692Z,10.80
2023-03-16T05:30:32.165Z,10.90
2023-03-16T05:32:58.688Z,10.90
2023-03-16T05:35:25.344Z,10.90
2023-03-16T05:37:51.820Z,10.80
2023-03-16T05:40:18.295Z,10.80
2023-03-16T05:42:44.760Z,10.80
2023-03-16T05:45:11.381Z,10.80
2023-03-16T05:47:37.855Z,10.80
2023-03-16T05:50:04.332Z,10.90
2023-03-16T05:52:30.806Z,10.80
2023-03-16T05:54:57.259Z,10.80
2023-03-16T05:57:23.809Z,10.90
2023-03-16T05:59:50.311Z,11.00
2023-03-16T06:02:16.778Z,11.00
2023-03-16T06:04:43.230Z,11.00
2023-03-16T06:07:09.724Z,11.00
2023-03-16T06:09:36.208Z,10.90
2023-03-16T06:12:02.666Z,10.90
2023-03-16T06:14:29.142Z,10.90
2023-03-16T06:16:55.626Z,10.90
2023-03-16T06:19:22.109Z,10.90
2023-03-16T06:21:48.596Z,10.90
2023-03-16T06:24:15.112Z,10.90
2023-03-16T06:26:41.593Z,10.90
2023-03-16T06:29:08.084Z,10.90
2023-03-16T06:31:34.636Z,11.00
2023-03-16T06:34:01.150Z,10.90
2023-03-16T06:36:27.669Z,10.80
2023-03-16T06:38:54.131Z,10.90
2023-03-16T06:41:20.598Z,10.90
2023-03-16T06:43:47.064Z,10.90
2023-03-16T06:46:13.621Z,10.80
2023-03-16T06:48:40.146Z,10.80
2023-03-16T06:51:06.631Z,10.90
2023-03-16T06:53:33.235Z,10.80
2023-03-16T06:55:59.720Z,10.80
2023-03-16T06:58:26.309Z,10.90
2023-03-16T07:00:52.805Z,10.90
2023-03-16T07:03:19.277Z,10.90
2023-03-16T07:05:45.779Z,10.90
2023-03-16T07:08:12.245Z,10.90
2023-03-16T07:10:38.731Z,10.80
2023-03-16T07:13:05.243Z,11.00
2023-03-16T07:15:31.725Z,10.90
2023-03-16T07:17:58.181Z,10.90
2023-03-16T07:20:24.646Z,11.00
2023-03-16T07:22:51.121Z,10.90
2023-03-16T07:25:17.603Z,10.90
2023-03-16T07:27:44.070Z,10.90
2023-03-16T07:30:10.549Z,10.90
2023-03-16T07:32:37.052Z,10.90
2023-03-16T07:35:03.560Z,11.00
2023-03-16T07:37:30.022Z,10.90
2023-03-16T07:39:56.492Z,10.90
2023-03-16T07:42:23.031Z,11.00
2023-03-16T07:44:51.679Z,10.90
2023-03-16T07:47:18.390Z,10.90
2023-03-16T07:49:44.858Z,10.90
2023-03-16T07:52:11.339Z,10.90
2023-03-16T07:54:37.827Z,10.90
2023-03-16T07:57:04.289Z,10.90
2023-03-16T07:59:30.754Z,11.00
2023-03-16T08:01:57.318Z,10.90
2023-03-16T08:04:23.880Z,10.90
2023-03-16T08:06:50.345Z,11.00
2023-03-16T08:09:16.830Z,10.90
2023-03-16T08:11:43.321Z,11.00
2023-03-16T08:14:09.809Z,11.00
2023-03-16T08:16:36.285Z,10.90
2023-03-16T08:19:02.776Z,10.90
2023-03-16T08:21:29.261Z,11.00
2023-03-16T08:23:55.750Z,10.90
2023-03-16T08:26:22.211Z,11.00
2023-03-16T08:28:48.731Z,10.90
2023-03-16T08:31:15.254Z,10.90
2023-03-16T08:33:41.760Z,10.90
2023-03-16T08:36:08.276Z,11.00
2023-03-16T08:38:34.771Z,10.90
2023-03-16T08:41:01.261Z,10.80
2023-03-16T08:43:27.733Z,10.90
2023-03-16T08:45:54.218Z,11.00
2023-03-16T08:48:20.695Z,11.00
2023-03-16T08:50:47.214Z,10.90
2023-03-16T08:53:13.733Z,10.90
2023-03-16T08:55:40.216Z,11.00
2023-03-16T08:58:06.717Z,11.00
2023-03-16T09:00:33.208Z,10.90
2023-03-16T09:02:59.664Z,10.90
2023-03-16T09:05:26.132Z,10.90
2023-03-16T09:07:52.599Z,10.80
2023-03-16T09:10:19.084Z,10.90
2023-03-16T09:12:45.593Z,10.90
2023-03-16T09:15:12.083Z,10.90
2023-03-16T09:17:38.561Z,11.00
2023-03-16T09:20:15.316Z,11.00
2023-03-16T09:22:45.959Z,10.90
2023-03-16T09:25:12.445Z,11.00
2023-03-16T09:27:38.913Z,11.00
2023-03-16T09:30:05.455Z,10.90
2023-03-16T09:32:31.971Z,10.90
2023-03-16T09:34:58.461Z,11.00
2023-03-16T09:37:24.950Z,11.00
2023-03-16T09:39:51.808Z,11.00
2023-03-16T09:42:18.347Z,11.00
2023-03-16T09:44:44.825Z,11.00
2023-03-16T09:47:11.309Z,11.00
2023-03-16T09:49:37.790Z,11.00
2023-03-16T09:52:04.258Z,11.00
2023-03-16T09:54:30.757Z,11.00
2023-03-16T09:56:57.236Z,10.90
2023-03-16T09:59:23.721Z,11.00
2023-03-16T10:01:50.194Z,11.10
2023-03-16T10:04:16.720Z,11.00
2023-03-16T10:06:43.254Z,11.00
2023-03-16T10:09:09.722Z,11.00
2023-03-16T10:11:36.204Z,11.00
2023-03-16T10:14:02.678Z,11.00
2023-03-16T10:16:29.172Z,11.00
2023-03-16T10:18:55.696Z,11.10
2023-03-16T10:21:22.158Z,11.00
2023-03-16T10:23:49.385Z,11.10
2023-03-16T10:26:15.866Z,11.00
2023-03-16T10:28:42.382Z,11.00
2023-03-16T10:31:08.843Z,10.90
2023-03-16T10:33:35.347Z,11.00
2023-03-16T10:36:01.843Z,11.00
2023-03-16T10:38:28.328Z,11.00
2023-03-16T10:40:54.788Z,11.00
2023-03-16T10:43:21.270Z,11.00
2023-03-16T10:45:47.806Z,11.00
2023-03-16T10:48:14.334Z,11.00
2023-03-16T10:50:40.807Z,11.00
2023-03-16T10:53:07.284Z,11.10
2023-03-16T10:55:33.779Z,11.00
2023-03-16T10:58:00.267Z,11.10
2023-03-16T11:00:26.749Z,11.00
2023-03-16T11:02:53.238Z,10.90
2023-03-16T11:05:19.714Z,10.90
2023-03-16T11:07:46.178Z,10.90
2023-03-16T11:10:12.904Z,10.80
2023-03-16T11:12:39.369Z,10.90
2023-03-16T11:15:09.390Z,10.90
2023-03-16T11:17:40.424Z,10.90
2023-03-16T11:20:06.898Z,10.80
2023-03-16T11:22:33.365Z,10.90
2023-03-16T11:24:59.881Z,10.90
2023-03-16T11:27:26.377Z,10.90
2023-03-16T11:29:52.885Z,10.90
2023-03-16T11:32:19.358Z,10.90
2023-03-16T11:34:45.830Z,10.90
2023-03-16T11:37:12.307Z,10.90
2023-03-16T11:39:38.773Z,10.90
2023-03-16T11:44:55.338Z,10.90
2023-03-16T11:47:21.825Z,11.00
2023-03-16T11:49:48.304Z,10.90
2023-03-16T11:52:14.788Z,11.00
2023-03-16T11:54:41.261Z,11.00
2023-03-16T11:57:07.778Z,11.00
2023-03-16T11:59:34.244Z,10.90
2023-03-16T12:02:01.426Z,10.90
2023-03-16T12:04:28.106Z,10.90
2023-03-16T12:06:54.618Z,10.80
2023-03-16T12:09:21.091Z,10.90
2023-03-16T12:11:47.574Z,10.90
2023-03-16T12:14:14.068Z,10.90
2023-03-16T12:16:49.113Z,10.80
2023-03-16T12:19:16.169Z,10.90
2023-03-16T12:21:42.637Z,11.00
2023-03-16T12:24:09.094Z,11.00
2023-03-16T12:26:35.569Z,11.00
2023-03-16T12:29:06.072Z,11.00
2023-03-16T12:31:32.568Z,11.10
2023-03-16T12:33:59.068Z,11.10
2023-03-16T12:36:25.572Z,11.10
2023-03-16T12:38:52.045Z,11.00
2023-03-16T12:41:18.529Z,11.00
2023-03-16T12:43:45.004Z,11.00
2023-03-16T12:46:11.540Z,11.10
2023-03-16T12:48:38.036Z,11.00
2023-03-16T12:51:04.535Z,11.00
2023-03-16T12:53:31.012Z,11.10
2023-03-16T12:55:57.510Z,11.00
2023-03-16T12:58:24.011Z,11.00
2023-03-16T13:00:50.508Z,11.10
2023-03-16T13:03:17.023Z,11.10
2023-03-16T13:05:43.519Z,11.00
2023-03-16T13:08:10.025Z,11.10
2023-03-16T13:10:36.538Z,11.10
2023-03-16T13:13:03.001Z,11.10
2023-03-16T13:15:29.513Z,11.10
2023-03-16T13:17:56.003Z,11.10
2023-03-16T13:20:30.432Z,11.10
2023-03-16T13:22:57.968Z,11.20
2023-03-16T13:25:24.491Z,11.10
2023-03-16T13:27:50.959Z,11.20
2023-03-16T13:30:18.137Z,11.10
2023-03-16T13:32:44.687Z,11.10
2023-03-16T13:35:11.169Z,11.20
2023-03-16T13:37:37.633Z,11.10
2023-03-16T13:40:04.115Z,11.20
2023-03-16T13:42:30.595Z,11.20
2023-03-16T13:44:57.093Z,11.20
2023-03-16T13:47:23.581Z,11.20
2023-03-16T13:49:50.093Z,11.10
2023-03-16T13:52:16.573Z,11.20
2023-03-16T13:54:43.079Z,11.10
2023-03-16T13:57:09.569Z,11.20
2023-03-16T13:59:36.087Z,11.20
2023-03-16T14:02:02.582Z,11.20
2023-03-16T14:04:29.099Z,11.20
2023-03-16T14:06:55.581Z,11.20
2023-03-16T14:09:22.089Z,11.20
2023-03-16T14:11:48.607Z,11.20
2023-03-16T14:14:15.127Z,11.20
2023-03-16T14:16:41.593Z,11.30
2023-03-16T14:19:08.091Z,11.20
2023-03-16T14:21:34.598Z,11.30
2023-03-16T14:24:01.130Z,11.30
2023-03-16T14:26:27.599Z,11.40
2023-03-16T14:28:54.077Z,11.30
2023-03-16T14:31:20.582Z,11.30
2023-03-16T14:33:47.066Z,11.40
2023-03-16T14:36:13.622Z,11.40
2023-03-16T14:38:40.110Z,11.40
2023-03-16T14:41:06.585Z,11.40
2023-03-16T14:43:33.067Z,11.30
2023-03-16T14:45:59.567Z,11.30
2023-03-16T14:48:26.048Z,11.20
2023-03-16T14:50:52.638Z,11.30
2023-03-16T14:53:19.103Z,11.30
2023-03-16T14:55:45.588Z,11.30
2023-03-16T14:58:12.067Z,11.30
2023-03-16T15:00:51.925Z,11.30
2023-03-16T15:03:19.483Z,11.40
2023-03-16T15:05:45.951Z,11.40
2023-03-16T15:08:12.451Z,11.40
2023-03-16T15:10:38.936Z,11.50
2023-03-16T15:13:05.408Z,11.50
2023-03-16T15:15:31.939Z,11.50
2023-03-16T15:17:58.449Z,11.50
2023-03-16T15:20:25.032Z,11.40
2023-03-16T15:22:51.509Z,11.50
2023-03-16T15:25:18.065Z,11.40
2023-03-16T15:27:44.598Z,11.40
2023-03-16T15:30:11.121Z,11.50
2023-03-16T15:32:37.867Z,11.60
2023-03-16T15:35:04.404Z,11.60
2023-03-16T15:37:30.873Z,11.60
2023-03-16T15:39:57.429Z,11.70
2023-03-16T15:42:23.915Z,11.60
2023-03-16T15:44:50.411Z,11.70
2023-03-16T15:47:16.880Z,11.70
2023-03-16T15:49:47.703Z,11.50
2023-03-16T15:52:14.658Z,11.70
2023-03-16T15:54:41.124Z,11.60
2023-03-16T15:57:07.644Z,11.60
2023-03-16T15:59:34.125Z,11.50
2023-03-16T16:02:00.618Z,11.60
2023-03-16T16:04:27.196Z,11.60
2023-03-16T16:06:53.761Z,11.60
2023-03-16T16:09:20.231Z,11.60
2023-03-16T16:11:46.718Z,11.70
2023-03-16T16:14:13.190Z,11.60
2023-03-16T16:16:39.704Z,11.80
2023-03-16T16:19:06.201Z,11.70
2023-03-16T16:21:32.726Z,11.70
2023-03-16T16:23:59.226Z,11.80
2023-03-16T16:26:27.940Z,11.80
2023-03-16T16:28:58.170Z,11.80
2023-03-16T16:31:24.709Z,11.70
2023-03-16T16:33:51.185Z,11.60
2023-03-16T16:36:17.676Z,11.50
2023-03-16T16:38:44.166Z,11.70
2023-03-16T16:41:10.647Z,11.70
2023-03-16T16:43:37.119Z,11.70
2023-03-16T16:46:03.670Z,11.80
2023-03-16T16:48:30.216Z,11.70
2023-03-16T16:50:56.701Z,11.60
2023-03-16T16:53:23.172Z,11.60
2023-03-16T16:55:49.682Z,11.50
2023-03-16T16:58:24.277Z,11.50
2023-03-16T17:00:51.313Z,11.50
2023-03-16T17:03:17.824Z,11.60
2023-03-16T17:05:44.314Z,11.50
2023-03-16T17:08:10.790Z,11.60
2023-03-16T17:10:37.273Z,11.50
2023-03-16T17:13:03.757Z,11.50
2023-03-16T17:15:30.534Z,11.50
2023-03-16T17:17:57.171Z,11.50
2023-03-16T17:20:23.660Z,11.50
2023-03-16T17:22:50.140Z,11.50
2023-03-16T17:25:16.640Z,11.40
2023-03-16T17:27:43.114Z,11.40
2023-03-16T17:30:09.625Z,11.40
2023-03-16T17:32:36.108Z,11.30
2023-03-16T17:35:02.609Z,11.40
2023-03-16T17:37:29.138Z,11.40
2023-03-16T17:39:57.431Z,11.50
2023-03-16T17:42:24.125Z,11.60
2023-03-16T17:44:50.601Z,11.50
2023-03-16T17:47:17.081Z,11.50
2023-03-16T17:49:43.568Z,11.50
2023-03-16T17:52:10.041Z,11.40
2023-03-16T17:54:36.518Z,11.40
2023-03-16T17:57:03.013Z,11.40
2023-03-16T17:59:29.503Z,11.40
2023-03-16T18:01:56.099Z,11.40
2023-03-16T18:04:22.680Z,11.40
2023-03-16T18:06:49.155Z,11.30
2023-03-16T18:09:15.623Z,11.30
2023-03-16T18:11:42.105Z,11.30
2023-03-16T18:14:08.577Z,11.30
2023-03-16T18:16:35.062Z,11.40
2023-03-16T18:19:01.562Z,11.40
2023-03-16T18:21:28.047Z,11.40
2023-03-16T18:23:54.504Z,11.30
2023-03-16T18:26:20.979Z,11.40
2023-03-16T18:28:47.449Z,11.40
2023-03-16T18:31:13.945Z,11.40
2023-03-16T18:33:41.864Z,11.40
2023-03-16T18:36:08.458Z,11.50
2023-03-16T18:38:34.974Z,11.50
2023-03-16T18:41:01.449Z,11.40
2023-03-16T18:43:27.954Z,11.40
2023-03-16T18:45:54.953Z,11.40
2023-03-16T18:48:21.516Z,11.40
2023-03-16T18:50:47.994Z,11.40
2023-03-16T18:53:14.456Z,11.40
2023-03-16T18:55:40.954Z,11.50
2023-03-16T18:58:07.425Z,11.40
2023-03-16T19:00:33.947Z,11.40
2023-03-16T19:03:00.465Z,11.40
2023-03-16T19:05:27.366Z,11.40
2023-03-16T19:07:54.038Z,11.40
2023-03-16T19:10:20.540Z,11.30
2023-03-16T19:12:47.026Z,11.40
2023-03-16T19:15:13.540Z,11.40
2023-03-16T19:17:40.061Z,11.40
2023-03-16T19:20:06.562Z,11.40
2023-03-16T19:22:33.014Z,11.30
2023-03-16T19:24:59.498Z,11.40
2023-03-16T19:27:25.979Z,11.40
2023-03-16T19:29:52.504Z,11.40
2023-03-16T19:32:18.977Z,11.40
2023-03-16T19:34:45.441Z,11.40
2023-03-16T19:37:11.916Z,11.40
2023-03-16T19:39:38.408Z,11.40
2023-03-16T19:42:04.902Z,11.30
2023-03-16T19:44:31.388Z,11.30
2023-03-16T19:46:57.858Z,11.30
2023-03-16T19:49:24.330Z,11.30
2023-03-16T19:51:50.813Z,11.40
2023-03-16T19:54:17.285Z,11.30
2023-03-16T19:56:43.764Z,11.40
2023-03-16T19:59:10.247Z,11.30
2023-03-16T20:01:36.792Z,11.30
2023-03-16T20:04:03.497Z,11.30
2023-03-16T20:06:29.987Z,11.40
2023-03-16T20:08:56.459Z,11.30
2023-03-16T20:11:22.940Z,11.40
2023-03-16T20:13:49.414Z,11.40
2023-03-16T20:16:15.992Z,11.40
2023-03-16T20:18:42.498Z,11.40
2023-03-16T20:21:08.972Z,11.30
2023-03-16T20:23:35.452Z,11.30
2023-03-16T20:26:03.021Z,11.30
2023-03-16T20:28:29.679Z,11.30
2023-03-16T20:30:56.204Z,11.30
2023-03-16T20:33:23.807Z,11.30
2023-03-16T20:35:50.666Z,11.30
2023-03-16T20:38:17.158Z,11.30
2023-03-16T20:40:43.635Z,11.20
2023-03-16T20:43:12.525Z,11.20
2023-03-16T20:45:41.007Z,11.30
2023-03-16T20:48:07.485Z,11.20
2023-03-16T20:50:34.018Z,11.20
2023-03-16T20:53:00.510Z,11.30
2023-03-16T20:55:27.103Z,11.30
2023-03-16T20:57:53.652Z,11.30
2023-03-16T21:00:20.122Z,11.40
2023-03-16T21:02:46.602Z,11.40
2023-03-16T21:05:13.143Z,11.40
2023-03-16T21:07:39.621Z,11.30
2023-03-16T21:10:06.138Z,11.40
2023-03-16T21:12:32.608Z,11.40
2023-03-16T21:14:59.095Z,11.40
2023-03-16T21:17:26.794Z,11.30
2023-03-16T21:19:53.459Z,11.40
2023-03-16T21:22:19.923Z,11.30
2023-03-16T21:24:46.389Z,11.40
2023-03-16T21:27:12.871Z,11.40
2023-03-16T21:29:39.348Z,11.40
2023-03-16T21:32:05.828Z,11.40
2023-03-16T21:34:32.314Z,11.40
2023-03-16T21:36:58.839Z,11.40
2023-03-16T21:39:25.571Z,11.30
2023-03-16T21:41:52.093Z,11.30
2023-03-16T21:44:18.628Z,11.30
2023-03-16T21:46:45.222Z,11.40
2023-03-16T21:49:11.766Z,11.40
2023-03-16T21:51:38.231Z,11.30
2023-03-16T21:54:04.715Z,11.40
2023-03-16T21:56:31.302Z,11.30
2023-03-16T21:58:57.778Z,11.40
2023-03-16T22:01:24.611Z,11.40
2023-03-16T22:03:51.615Z,11.40
2023-03-16T22:06:18.125Z,11.40
2023-03-16T22:08:44.594Z,11.30
2023-03-16T22:11:11.077Z,11.40
2023-03-16T22:13:37.554Z,11.30
2023-03-16T22:16:04.071Z,11.40
2023-03-16T22:18:30.585Z,11.40
2023-03-16T22:20:57.057Z,11.30
2023-03-16T22:23:23.542Z,11.40
2023-03-16T22:25:50.025Z,11.40
2023-03-16T22:28:16.499Z,11.40
2023-03-16T22:30:43.073Z,11.40
2023-03-16T22:33:09.558Z,11.40
2023-03-16T22:35:36.068Z,11.40
2023-03-16T22:38:02.549Z,11.30
2023-03-16T22:40:29.033Z,11.30
2023-03-16T22:42:55.509Z,11.20
2023-03-16T22:45:22.016Z,11.20
2023-03-16T22:47:48.491Z,11.20
2023-03-16T22:50:14.996Z,11.30
2023-03-16T22:52:41.474Z,11.20
2023-03-16T22:55:07.970Z,11.30
2023-03-16T22:57:34.434Z,11.40
2023-03-16T23:00:00.939Z,11.30
2023-03-16T23:02:27.416Z,11.40
2023-03-16T23:04:53.947Z,11.30
2023-03-16T23:07:20.466Z,11.30
2023-03-16T23:09:46.930Z,11.30
2023-03-16T23:12:13.422Z,11.40
2023-03-16T23:14:39.893Z,11.30
2023-03-16T23:17:06.375Z,11.30
2023-03-16T23:19:36.670Z,11.30
2023-03-16T23:22:03.146Z,11.30
2023-03-16T23:24:29.632Z,11.30
2023-03-16T23:26:56.096Z,11.20
2023-03-16T23:29:22.561Z,11.20
2023-03-16T23:31:49.030Z,11.30
2023-03-16T23:34:15.512Z,11.20
2023-03-16T23:36:42.000Z,11.30
2023-03-16T23:39:08.477Z,11.40
2023-03-16T23:41:34.990Z,11.40
2023-03-16T23:44:01.456Z,11.40
2023-03-16T23:46:27.974Z,11.30
2023-03-16T23:48:54.480Z,11.30
2023-03-16T23:51:20.954Z,11.30
2023-03-16T23:53:47.421Z,11.40
2023-03-16T23:56:13.916Z,11.30
2023-03-16T23:58:40.393Z,11.30
